Startpagina
METAR-TAF:

METAR-TAF

Vliegvelden :

Kerteh, Maleisië

breedte: 04-32-15N, lengte: 103-25-36E, hoogte: 5 m

Actueel weer

Dit bericht is 20 minuten geleden gemaakt, om 17:00 UTC
Wind 3 kt uit het noordwesten, variërend tussen het westzuidwesten en het noorden
Temperatuur 26°C
Vochtigheid 89%
Druk 1012 hPa

METAR: WMKE 261700Z AUTO 31003KT 250V010 //// // ////// 26/24 Q1012

Tijdstip: 01:20 (17:20 UTC)

Verwachting

Dit bericht is 6 uur en het 20 minuten geleden gemaakt, om 11:00 UTC
Verwachting geldig van 26 om 12 UTC tot 27 om 12 UTC
Wind 4 kt uit het noorden
Zicht 10 km of meer
Weinig wolken op 1600 ft
Wijzigt naar
van 26 om 15 UTC tot 26 om 17 UTC
Wind 3 kt uit variabele richting
Wijzigt naar
van 27 om 00 UTC tot 27 om 02 UTC
Wind 8 kt uit het noordnoordoosten
Weinig wolken op 1400 ft

TAF: WMKE 261100Z 2612/2712 35004KT 9999 FEW016 BECMG 2615/2617 VRB03KT BECMG 2700/2702 03008KT FEW014

Waarnemingen en weersverwachtingen van meer dan 4000 vliegvelden (METAR en TAF).

De beschikbare stations zijn de gele en rode punten op de kaart.

Ga met uw muis naar het station om de naam te zien.

Klik dan om waarnemingen en weersverwachtingen te zien.

kaart wijzigen: klik op de groene knoppen met een zwart kruis om in te zoomen, op de groene knop met een streepje om uit te zoomen of op de groene pijlen voor aangrenzende kaarten.


METAR-TAF: